createdAt,value
2019-03-29T00:00:07.493Z,7.33
2019-03-29T00:02:36.414Z,10.90
2019-03-29T00:05:05.690Z,7.95
2019-03-29T00:07:40.010Z,7.60
2019-03-29T00:10:06.522Z,8.83
2019-03-29T00:12:35.371Z,6.03
2019-03-29T00:15:05.418Z,6.62
2019-03-29T00:17:34.264Z,6.50
2019-03-29T00:20:06.135Z,6.25
2019-03-29T00:22:34.392Z,5.53
2019-03-29T00:25:03.236Z,5.78
2019-03-29T00:27:32.080Z,7.97
2019-03-29T00:30:00.924Z,9.73
2019-03-29T00:32:29.772Z,8.25
2019-03-29T00:34:58.617Z,7.17
2019-03-29T00:37:27.473Z,11.48
2019-03-29T00:39:56.315Z,8.00
2019-03-29T00:42:25.164Z,9.23
2019-03-29T00:44:54.003Z,10.13
2019-03-29T00:47:22.858Z,7.15
2019-03-29T00:49:51.704Z,11.83
2019-03-29T00:52:20.548Z,13.05
2019-03-29T00:54:49.404Z,8.60
2019-03-29T00:57:18.246Z,14.43
2019-03-29T00:59:47.094Z,10.80
2019-03-29T01:02:15.943Z,9.75
2019-03-29T01:04:44.880Z,14.23
2019-03-29T01:07:13.741Z,15.83
2019-03-29T01:09:42.618Z,11.00
2019-03-29T01:12:11.464Z,10.95
2019-03-29T01:14:40.308Z,15.40
2019-03-29T01:17:09.191Z,16.48
2019-03-29T01:19:38.036Z,15.00
2019-03-29T01:22:06.881Z,14.47
2019-03-29T01:24:35.760Z,16.60
2019-03-29T01:27:05.678Z,16.07
2019-03-29T01:29:34.537Z,16.87
2019-03-29T01:32:03.699Z,15.88
2019-03-29T01:34:32.536Z,15.15
2019-03-29T01:37:01.385Z,16.93
2019-03-29T01:39:30.264Z,15.65
2019-03-29T01:41:59.128Z,16.35
2019-03-29T01:44:28.222Z,14.60
2019-03-29T01:46:57.154Z,18.32
2019-03-29T01:49:26.011Z,17.32
2019-03-29T01:51:54.855Z,15.95
2019-03-29T01:54:23.733Z,14.87
2019-03-29T01:56:52.583Z,15.88
2019-03-29T01:59:21.432Z,16.05
2019-03-29T02:01:50.303Z,18.35
2019-03-29T02:04:19.152Z,14.98
2019-03-29T02:06:47.996Z,18.70
2019-03-29T02:09:16.972Z,19.32
2019-03-29T02:11:45.824Z,16.07
2019-03-29T02:14:14.674Z,14.47
2019-03-29T02:16:43.548Z,18.00
2019-03-29T02:19:12.393Z,17.67
2019-03-29T02:21:41.299Z,17.57
2019-03-29T02:24:10.210Z,16.00
2019-03-29T02:26:39.057Z,15.93
2019-03-29T02:29:08.860Z,16.62
2019-03-29T02:31:41.867Z,19.57
2019-03-29T02:34:08.232Z,17.32
2019-03-29T02:36:37.088Z,19.52
2019-03-29T02:39:06.691Z,17.60
2019-03-29T02:41:35.518Z,15.68
2019-03-29T02:44:04.368Z,19.48
2019-03-29T02:46:33.261Z,15.65
2019-03-29T02:49:02.106Z,19.50
2019-03-29T02:51:32.711Z,16.85
2019-03-29T02:54:01.520Z,18.87
2019-03-29T02:56:30.365Z,19.60
2019-03-29T02:58:59.214Z,16.90
2019-03-29T03:01:28.129Z,21.20
2019-03-29T03:03:56.972Z,21.50
2019-03-29T03:06:25.827Z,20.32
2019-03-29T03:09:11.732Z,19.10
2019-03-29T03:11:25.196Z,22.42
2019-03-29T03:13:54.040Z,21.87
2019-03-29T03:16:22.925Z,18.23
2019-03-29T03:18:51.769Z,16.10
2019-03-29T03:21:20.626Z,19.85
2019-03-29T03:23:49.508Z,21.55
2019-03-29T03:26:18.337Z,20.65
2019-03-29T03:28:47.189Z,20.10
2019-03-29T03:31:16.066Z,20.25
2019-03-29T03:33:44.914Z,19.73
2019-03-29T03:36:13.792Z,20.35
2019-03-29T03:38:42.658Z,27.00
2019-03-29T03:41:11.493Z,20.65
2019-03-29T03:43:40.369Z,23.10
2019-03-29T03:46:09.277Z,23.62
2019-03-29T03:48:38.122Z,25.37
2019-03-29T03:51:07.073Z,25.70
2019-03-29T03:53:36.145Z,27.95
2019-03-29T03:56:05.192Z,23.85
2019-03-29T03:58:35.054Z,23.42
2019-03-29T04:01:03.904Z,23.80
2019-03-29T04:03:32.742Z,24.40
2019-03-29T04:06:01.628Z,22.22
2019-03-29T04:08:30.469Z,25.72
2019-03-29T04:10:59.327Z,31.00
2019-03-29T04:13:28.221Z,31.05
2019-03-29T04:15:57.056Z,29.45
2019-03-29T04:18:25.897Z,25.17
2019-03-29T04:20:54.824Z,25.02
2019-03-29T04:23:23.661Z,25.02
2019-03-29T04:25:52.502Z,29.12
2019-03-29T04:28:21.374Z,25.15
2019-03-29T04:30:50.225Z,25.82
2019-03-29T04:33:19.076Z,27.35
2019-03-29T04:35:47.940Z,25.82
2019-03-29T04:38:16.789Z,26.62
2019-03-29T04:40:45.665Z,25.75
2019-03-29T04:43:14.564Z,25.10
2019-03-29T04:45:43.422Z,25.92
2019-03-29T04:48:12.268Z,24.15
2019-03-29T04:50:41.129Z,24.67
2019-03-29T04:53:10.019Z,31.77
2019-03-29T04:55:38.869Z,23.70
2019-03-29T04:58:07.715Z,27.95
2019-03-29T05:00:36.576Z,25.43
2019-03-29T05:03:05.425Z,25.52
2019-03-29T05:05:34.307Z,27.48
2019-03-29T05:08:03.153Z,33.35
2019-03-29T05:10:31.996Z,46.65
2019-03-29T05:13:00.853Z,46.08
2019-03-29T05:15:29.704Z,43.58
2019-03-29T05:17:59.591Z,39.80
2019-03-29T05:20:28.474Z,36.05
2019-03-29T05:22:57.333Z,39.92
2019-03-29T05:25:26.192Z,41.75
2019-03-29T05:27:55.096Z,36.40
2019-03-29T05:30:23.932Z,28.25
2019-03-29T05:32:52.780Z,31.25
2019-03-29T05:35:21.648Z,33.58
2019-03-29T05:37:50.503Z,31.45
2019-03-29T05:40:19.360Z,29.40
2019-03-29T05:42:48.236Z,32.90
2019-03-29T05:45:17.087Z,29.87
2019-03-29T05:47:45.932Z,28.60
2019-03-29T05:50:14.898Z,35.63
2019-03-29T05:52:43.758Z,32.42
2019-03-29T05:55:12.860Z,32.48
2019-03-29T05:57:41.715Z,29.12
2019-03-29T06:00:12.253Z,26.50
2019-03-29T06:02:41.095Z,27.62
2019-03-29T06:05:10.036Z,29.00
2019-03-29T06:07:38.934Z,29.55
2019-03-29T06:10:08.220Z,31.10
2019-03-29T06:12:37.062Z,32.78
2019-03-29T06:15:06.733Z,29.87
2019-03-29T06:17:48.057Z,37.42
2019-03-29T06:20:06.676Z,30.17
2019-03-29T06:22:35.527Z,33.23
2019-03-29T06:25:05.822Z,28.27
2019-03-29T06:27:34.641Z,26.02
2019-03-29T06:30:04.985Z,23.25
2019-03-29T06:32:33.887Z,23.90
2019-03-29T06:35:02.733Z,27.25
2019-03-29T06:37:33.006Z,29.90
2019-03-29T06:40:01.973Z,27.13
2019-03-29T06:42:30.835Z,18.92
2019-03-29T06:44:59.724Z,21.17
2019-03-29T06:47:28.565Z,20.32
2019-03-29T06:49:57.451Z,21.25
2019-03-29T06:52:26.281Z,22.30
2019-03-29T06:54:55.826Z,24.60
2019-03-29T06:57:24.705Z,19.42
2019-03-29T06:59:53.555Z,21.10
2019-03-29T07:02:22.405Z,17.95
2019-03-29T07:04:51.259Z,21.55
2019-03-29T07:07:20.225Z,17.65
2019-03-29T07:09:49.108Z,16.50
2019-03-29T07:12:17.948Z,16.90
2019-03-29T07:14:46.796Z,18.30
2019-03-29T07:17:15.658Z,17.55
2019-03-29T07:19:44.550Z,17.10
2019-03-29T07:22:13.390Z,19.52
2019-03-29T07:24:42.234Z,17.70
2019-03-29T07:27:11.084Z,18.95
2019-03-29T07:29:39.944Z,11.75
2019-03-29T07:32:08.814Z,14.53
2019-03-29T07:34:37.696Z,16.37
2019-03-29T07:37:06.553Z,20.85
2019-03-29T07:39:35.427Z,19.85
2019-03-29T07:42:04.269Z,23.77
2019-03-29T07:44:33.120Z,19.45
2019-03-29T07:47:01.999Z,18.90
2019-03-29T07:49:31.785Z,15.63
2019-03-29T07:52:00.646Z,15.30
2019-03-29T07:54:29.501Z,17.40
2019-03-29T07:56:58.380Z,19.48
2019-03-29T07:59:27.264Z,22.67
2019-03-29T08:01:56.235Z,15.65
2019-03-29T08:04:25.108Z,19.07
2019-03-29T08:06:53.959Z,13.25
2019-03-29T08:09:22.978Z,17.23
2019-03-29T08:11:51.900Z,16.55
2019-03-29T08:14:20.748Z,15.65
2019-03-29T08:16:49.600Z,22.10
2019-03-29T08:19:18.485Z,16.12
2019-03-29T08:21:47.353Z,24.87
2019-03-29T08:24:16.243Z,22.67
2019-03-29T08:26:45.098Z,22.42
2019-03-29T08:29:13.957Z,17.37
2019-03-29T08:31:42.825Z,20.52
2019-03-29T08:34:11.669Z,15.58
2019-03-29T08:36:40.553Z,14.30
2019-03-29T08:39:10.306Z,22.45
2019-03-29T08:41:40.896Z,14.33
2019-03-29T08:44:11.837Z,8.88
2019-03-29T08:46:40.261Z,17.02
2019-03-29T08:49:09.449Z,22.95
2019-03-29T08:51:41.291Z,20.70
2019-03-29T08:54:08.847Z,25.15
2019-03-29T08:56:37.682Z,12.95
2019-03-29T08:59:06.537Z,18.95
2019-03-29T09:01:35.780Z,15.45
2019-03-29T09:04:05.928Z,19.10
2019-03-29T09:06:35.166Z,14.87
2019-03-29T09:09:05.530Z,7.25
2019-03-29T09:11:34.390Z,15.75
2019-03-29T09:14:03.269Z,11.05
2019-03-29T09:16:32.137Z,10.95
2019-03-29T09:19:01.060Z,14.05
2019-03-29T09:21:30.001Z,8.70
2019-03-29T09:23:58.852Z,15.28
2019-03-29T09:26:27.723Z,8.05
2019-03-29T09:28:56.576Z,7.47
2019-03-29T09:31:25.446Z,9.00
2019-03-29T09:33:54.549Z,12.95
2019-03-29T09:36:23.424Z,11.35
2019-03-29T09:38:52.329Z,11.33
2019-03-29T09:41:21.404Z,12.90
2019-03-29T09:43:53.723Z,16.57
2019-03-29T09:46:20.752Z,14.10
2019-03-29T09:48:49.612Z,14.58
2019-03-29T09:51:18.498Z,21.30
2019-03-29T09:53:47.340Z,24.87
2019-03-29T09:56:57.105Z,24.67
2019-03-29T10:06:47.185Z,8.80
2019-03-29T10:14:56.587Z,20.45
2019-03-29T10:17:23.616Z,11.30
2019-03-29T10:19:52.447Z,19.67
2019-03-29T10:22:21.340Z,22.37
2019-03-29T10:24:50.221Z,7.00
2019-03-29T10:27:19.338Z,11.63
2019-03-29T10:29:48.356Z,15.18
2019-03-29T10:32:17.225Z,11.95
2019-03-29T10:34:46.093Z,10.98
2019-03-29T10:37:14.944Z,9.33
2019-03-29T10:39:43.809Z,13.60
2019-03-29T10:42:12.680Z,17.32
2019-03-29T10:44:41.651Z,14.33
2019-03-29T10:47:10.573Z,12.35
2019-03-29T10:49:41.064Z,9.43
2019-03-29T10:52:09.910Z,11.00
2019-03-29T10:54:38.792Z,9.08
2019-03-29T10:57:07.648Z,8.25
2019-03-29T10:59:39.205Z,10.00
2019-03-29T11:02:08.257Z,15.47
2019-03-29T11:04:37.100Z,10.38
2019-03-29T11:07:05.996Z,11.18
2019-03-29T11:09:37.079Z,10.65
2019-03-29T11:12:05.365Z,10.03
2019-03-29T11:14:34.217Z,9.33
2019-03-29T11:17:03.098Z,13.22
2019-03-29T11:19:31.981Z,12.70
2019-03-29T11:22:00.827Z,11.97
2019-03-29T11:24:29.710Z,12.05
2019-03-29T11:26:58.559Z,9.55
2019-03-29T11:29:27.428Z,11.28
2019-03-29T11:31:56.309Z,12.80
2019-03-29T11:34:25.185Z,16.30
2019-03-29T11:36:54.048Z,11.73
2019-03-29T11:39:22.906Z,17.52
2019-03-29T11:41:53.696Z,12.30
2019-03-29T11:44:30.397Z,12.70
2019-03-29T11:46:59.444Z,12.88
2019-03-29T11:49:28.304Z,11.15
2019-03-29T11:51:57.162Z,14.75
2019-03-29T11:54:26.038Z,11.20
2019-03-29T11:56:54.929Z,9.88
2019-03-29T11:59:23.815Z,12.30
2019-03-29T12:01:52.714Z,12.03
2019-03-29T12:04:21.545Z,8.95
2019-03-29T12:06:51.998Z,22.07
2019-03-29T12:09:20.963Z,9.90
2019-03-29T12:11:49.853Z,17.15
2019-03-29T12:14:18.748Z,10.35
2019-03-29T12:16:47.648Z,12.25
2019-03-29T12:19:16.545Z,10.85
2019-03-29T12:21:46.938Z,10.50
2019-03-29T12:24:15.908Z,8.00
2019-03-29T12:26:44.815Z,10.23
2019-03-29T12:29:13.747Z,14.23
2019-03-29T12:31:42.912Z,12.25
2019-03-29T12:34:11.884Z,10.70
2019-03-29T12:36:40.771Z,7.97
2019-03-29T12:39:09.652Z,8.35
2019-03-29T12:41:38.558Z,12.70
2019-03-29T12:44:07.445Z,10.90
2019-03-29T12:46:36.371Z,10.28
2019-03-29T12:49:05.286Z,13.68
2019-03-29T12:51:34.200Z,22.55
2019-03-29T12:54:03.225Z,13.53
2019-03-29T12:56:32.160Z,13.18
2019-03-29T12:59:01.108Z,16.15
2019-03-29T13:01:39.314Z,13.85
2019-03-29T13:04:00.530Z,14.38
2019-03-29T13:06:29.437Z,11.63
2019-03-29T13:08:58.324Z,11.85
2019-03-29T13:11:27.232Z,12.63
2019-03-29T13:14:09.586Z,10.55
2019-03-29T13:16:27.585Z,16.93
2019-03-29T13:18:56.665Z,9.65
2019-03-29T13:21:25.559Z,13.08
2019-03-29T13:23:54.471Z,18.77
2019-03-29T13:26:23.377Z,14.50
2019-03-29T13:28:52.267Z,12.13
2019-03-29T13:31:21.220Z,10.60
2019-03-29T13:33:50.142Z,14.00
2019-03-29T13:36:19.107Z,12.00
2019-03-29T13:38:47.989Z,9.23
2019-03-29T13:41:16.887Z,9.45
2019-03-29T13:43:45.792Z,14.70
2019-03-29T13:46:14.679Z,13.48
2019-03-29T13:48:43.596Z,8.55
2019-03-29T13:51:12.482Z,10.08
2019-03-29T13:53:41.363Z,11.57
2019-03-29T13:56:11.775Z,12.58
2019-03-29T13:58:40.635Z,11.55
2019-03-29T14:01:09.618Z,11.93
2019-03-29T14:03:38.518Z,13.58
2019-03-29T14:06:07.395Z,9.83
2019-03-29T14:08:36.286Z,8.75
2019-03-29T14:11:05.199Z,11.33
2019-03-29T14:13:34.124Z,13.13
2019-03-29T14:16:03.022Z,13.80
2019-03-29T14:18:31.920Z,12.33
2019-03-29T14:21:00.853Z,11.88
2019-03-29T14:23:29.715Z,9.23
2019-03-29T14:25:58.688Z,11.35
2019-03-29T14:28:29.055Z,11.85
2019-03-29T14:30:57.976Z,13.00
2019-03-29T14:33:26.871Z,9.95
2019-03-29T14:35:55.764Z,11.95
2019-03-29T14:38:24.688Z,11.10
2019-03-29T14:40:53.620Z,15.98
2019-03-29T14:43:22.512Z,10.45
2019-03-29T14:45:51.417Z,12.45
2019-03-29T14:48:20.315Z,13.05
2019-03-29T14:50:49.232Z,9.25
2019-03-29T14:53:18.123Z,12.43
2019-03-29T14:55:47.039Z,13.13
2019-03-29T14:58:15.920Z,11.10
2019-03-29T15:00:48.368Z,8.68
2019-03-29T15:03:15.681Z,16.42
2019-03-29T15:05:44.671Z,12.13
2019-03-29T15:08:13.605Z,14.68
2019-03-29T15:10:45.739Z,16.87
2019-03-29T15:13:14.401Z,8.88
2019-03-29T15:15:43.303Z,10.43
2019-03-29T15:18:12.207Z,14.33
2019-03-29T15:20:52.608Z,16.00
2019-03-29T15:23:11.690Z,11.80
2019-03-29T15:25:40.969Z,13.03
2019-03-29T15:28:10.064Z,11.20
2019-03-29T15:30:38.961Z,11.65
2019-03-29T15:33:07.889Z,16.37
2019-03-29T15:35:36.767Z,12.93
2019-03-29T15:38:05.675Z,17.60
2019-03-29T15:40:34.664Z,20.05
2019-03-29T15:43:03.556Z,13.60
2019-03-29T15:45:32.597Z,14.85
2019-03-29T15:48:01.495Z,21.75
2019-03-29T15:50:30.383Z,16.77
2019-03-29T15:52:59.324Z,15.85
2019-03-29T15:55:28.221Z,17.90
2019-03-29T15:57:57.133Z,20.23
2019-03-29T16:00:26.027Z,18.37
2019-03-29T16:02:54.919Z,22.80
2019-03-29T16:05:23.808Z,20.95
2019-03-29T16:07:52.704Z,20.10
2019-03-29T16:10:21.628Z,19.95
2019-03-29T16:12:50.528Z,22.55
2019-03-29T16:15:33.188Z,36.63
2019-03-29T16:17:49.957Z,27.42
2019-03-29T16:20:18.843Z,18.70
2019-03-29T16:22:47.771Z,26.20
2019-03-29T16:25:16.672Z,22.10
2019-03-29T16:27:45.552Z,19.00
2019-03-29T16:30:14.603Z,16.17
2019-03-29T16:32:43.465Z,20.77
2019-03-29T16:35:12.482Z,28.67
2019-03-29T16:37:41.341Z,24.07
2019-03-29T16:40:10.494Z,35.03
2019-03-29T16:42:39.350Z,16.23
2019-03-29T16:45:08.612Z,21.55
2019-03-29T16:47:37.471Z,20.75
2019-03-29T16:50:07.244Z,34.08
2019-03-29T16:52:36.117Z,43.15
2019-03-29T16:55:13.839Z,21.45
2019-03-29T16:57:37.917Z,26.62
2019-03-29T17:00:12.568Z,21.80
2019-03-29T17:02:41.554Z,19.57
2019-03-29T17:05:10.812Z,19.85
2019-03-29T17:07:39.671Z,20.65
2019-03-29T17:10:08.853Z,17.42
2019-03-29T17:12:37.685Z,18.20
2019-03-29T17:15:07.035Z,19.05
2019-03-29T17:17:36.208Z,20.80
2019-03-29T17:20:07.729Z,22.73
2019-03-29T17:22:36.880Z,23.60
2019-03-29T17:25:08.416Z,22.50
2019-03-29T17:27:37.271Z,21.90
2019-03-29T17:30:08.484Z,21.62
2019-03-29T17:32:37.361Z,20.45
2019-03-29T17:35:07.729Z,37.45
2019-03-29T17:37:36.554Z,27.73
2019-03-29T17:40:08.052Z,23.32
2019-03-29T17:42:36.995Z,28.13
2019-03-29T17:45:07.541Z,24.18
2019-03-29T17:47:36.429Z,26.15
2019-03-29T17:50:06.683Z,17.77
2019-03-29T17:52:35.634Z,23.00
2019-03-29T17:55:06.489Z,23.52
2019-03-29T17:57:35.359Z,29.90
2019-03-29T18:00:07.372Z,29.50
2019-03-29T18:02:36.268Z,35.05
2019-03-29T18:05:07.148Z,26.87
2019-03-29T18:07:36.013Z,41.98
2019-03-29T18:10:08.765Z,33.30
2019-03-29T18:12:37.620Z,24.92
2019-03-29T18:15:08.181Z,23.15
2019-03-29T18:17:37.075Z,30.37
2019-03-29T18:20:07.791Z,24.72
2019-03-29T18:22:36.643Z,60.95
2019-03-29T18:25:08.645Z,25.68
2019-03-29T18:27:38.086Z,25.40
2019-03-29T18:30:11.805Z,26.80
2019-03-29T18:32:40.737Z,26.60
2019-03-29T18:35:11.413Z,24.25
2019-03-29T18:37:40.372Z,26.87
2019-03-29T18:40:26.376Z,33.40
2019-03-29T18:42:56.028Z,39.90
2019-03-29T18:45:24.873Z,34.60
2019-03-29T18:47:54.323Z,45.25
2019-03-29T18:50:23.168Z,49.23
2019-03-29T18:52:52.048Z,43.58
2019-03-29T18:55:20.898Z,26.95
2019-03-29T18:57:49.752Z,29.05
2019-03-29T19:00:29.869Z,31.50
2019-03-29T19:02:58.712Z,30.50
2019-03-29T19:05:28.072Z,78.47
2019-03-29T19:07:56.920Z,47.70
2019-03-29T19:10:26.488Z,39.03
2019-03-29T19:12:55.333Z,32.93
2019-03-29T19:15:24.402Z,26.07
2019-03-29T19:17:53.244Z,33.23
2019-03-29T19:20:27.899Z,30.52
2019-03-29T19:22:52.600Z,25.45
2019-03-29T19:25:21.450Z,22.05
2019-03-29T19:27:50.297Z,26.02
2019-03-29T19:30:19.468Z,28.57
2019-03-29T19:32:48.294Z,27.60
2019-03-29T19:35:17.174Z,26.87
2019-03-29T19:37:46.003Z,30.12
2019-03-29T19:40:14.894Z,24.45
2019-03-29T19:42:43.737Z,26.85
2019-03-29T19:45:12.812Z,22.48
2019-03-29T19:47:41.668Z,26.00
2019-03-29T19:50:10.918Z,23.83
2019-03-29T19:52:39.810Z,22.82
2019-03-29T19:55:08.977Z,31.37
2019-03-29T19:57:37.797Z,21.25
2019-03-29T20:00:09.957Z,28.12
2019-03-29T20:02:39.243Z,31.07
2019-03-29T20:05:13.817Z,22.32
2019-03-29T20:07:42.672Z,19.57
2019-03-29T20:10:12.690Z,23.15
2019-03-29T20:12:41.584Z,24.63
2019-03-29T20:15:10.540Z,23.85
2019-03-29T20:17:39.395Z,24.92
2019-03-29T20:20:08.355Z,26.77
2019-03-29T20:22:37.203Z,27.58
2019-03-29T20:25:06.554Z,25.08
2019-03-29T20:27:35.397Z,26.90
2019-03-29T20:30:07.044Z,26.75
2019-03-29T20:32:35.908Z,33.60
2019-03-29T20:35:06.179Z,23.67
2019-03-29T20:37:35.034Z,26.60
2019-03-29T20:40:05.553Z,31.12
2019-03-29T20:42:34.412Z,26.55
2019-03-29T20:45:03.477Z,28.38
2019-03-29T20:47:41.932Z,26.70
2019-03-29T20:50:03.122Z,26.25
2019-03-29T20:52:32.465Z,23.22
2019-03-29T20:55:01.309Z,22.32
2019-03-29T20:57:30.160Z,24.45
2019-03-29T20:59:59.010Z,24.07
2019-03-29T21:02:27.856Z,27.50
2019-03-29T21:04:56.713Z,21.37
2019-03-29T21:07:26.761Z,21.00
2019-03-29T21:09:55.611Z,22.48
2019-03-29T21:12:24.471Z,34.92
2019-03-29T21:14:53.320Z,25.50
2019-03-29T21:17:22.164Z,22.90
2019-03-29T21:19:51.025Z,19.98
2019-03-29T21:22:19.892Z,22.45
2019-03-29T21:24:48.740Z,26.02
2019-03-29T21:27:17.587Z,21.33
2019-03-29T21:29:46.452Z,19.95
2019-03-29T21:32:15.301Z,23.67
2019-03-29T21:34:44.152Z,17.07
2019-03-29T21:37:12.995Z,20.12
2019-03-29T21:39:41.838Z,18.40
2019-03-29T21:42:10.720Z,28.07
2019-03-29T21:44:39.592Z,19.62
2019-03-29T21:47:08.432Z,23.57
2019-03-29T21:49:37.276Z,22.73
2019-03-29T21:52:06.124Z,21.87
2019-03-29T21:54:34.977Z,23.35
2019-03-29T21:57:03.863Z,21.62
2019-03-29T21:59:32.722Z,21.00
2019-03-29T22:02:01.560Z,25.55
2019-03-29T22:04:30.412Z,18.70
2019-03-29T22:06:59.255Z,21.68
2019-03-29T22:09:36.881Z,17.67
2019-03-29T22:11:58.588Z,26.12
2019-03-29T22:14:27.442Z,19.67
2019-03-29T22:16:56.281Z,21.95
2019-03-29T22:19:25.130Z,15.98
2019-03-29T22:21:53.976Z,20.08
2019-03-29T22:24:22.822Z,18.90
2019-03-29T22:26:51.668Z,21.62
2019-03-29T22:29:20.507Z,25.77
2019-03-29T22:31:49.361Z,16.40
2019-03-29T22:34:18.215Z,21.17
2019-03-29T22:36:47.151Z,18.60
2019-03-29T22:39:16.015Z,25.62
2019-03-29T22:41:44.860Z,25.05
2019-03-29T22:44:13.708Z,21.68
2019-03-29T22:46:42.560Z,30.12
2019-03-29T22:49:11.401Z,21.27
2019-03-29T22:51:40.258Z,18.82
2019-03-29T22:54:09.096Z,23.57
2019-03-29T22:56:37.947Z,18.30
2019-03-29T22:59:06.788Z,22.30
2019-03-29T23:01:38.576Z,24.25
2019-03-29T23:04:07.420Z,21.70
2019-03-29T23:06:36.280Z,23.02
2019-03-29T23:09:07.588Z,21.97
2019-03-29T23:11:36.432Z,25.27
2019-03-29T23:14:05.290Z,24.30
2019-03-29T23:16:34.135Z,26.05
2019-03-29T23:19:06.797Z,24.82
2019-03-29T23:21:37.836Z,21.68
2019-03-29T23:24:06.677Z,19.30
2019-03-29T23:26:35.561Z,19.90
2019-03-29T23:29:04.408Z,24.45
2019-03-29T23:31:33.280Z,18.20
2019-03-29T23:34:02.131Z,22.00
2019-03-29T23:36:30.981Z,19.07
2019-03-29T23:38:59.853Z,21.68
2019-03-29T23:41:28.693Z,23.12
2019-03-29T23:43:57.539Z,23.22
2019-03-29T23:46:26.389Z,22.37
2019-03-29T23:48:55.239Z,23.45
2019-03-29T23:51:24.116Z,18.23
2019-03-29T23:53:52.959Z,20.20
2019-03-29T23:56:21.808Z,17.75
2019-03-29T23:58:50.663Z,23.95
